sensor_id;sensor_type;location;lat;lon;timestamp;pressure;altitude;pressure_sealevel;temperature;humidity
21863;BME280;11096;51.338;12.524;2023-04-20T00:02:17;100458.59;;;5.79;100.00
21863;BME280;11096;51.338;12.524;2023-04-20T00:04:42;100452.72;;;5.75;100.00
21863;BME280;11096;51.338;12.524;2023-04-20T00:07:08;100456.47;;;5.68;100.00
21863;BME280;11096;51.338;12.524;2023-04-20T00:09:33;100452.72;;;5.75;100.00
21863;BME280;11096;51.338;12.524;2023-04-20T00:11:59;100453.66;;;5.54;100.00
21863;BME280;11096;51.338;12.524;2023-04-20T00:14:26;100450.97;;;5.57;100.00
21863;BME280;11096;51.338;12.524;2023-04-20T00:16:51;100447.31;;;5.61;100.00
21863;BME280;11096;51.338;12.524;2023-04-20T00:19:17;100452.16;;;5.69;100.00
21863;BME280;11096;51.338;12.524;2023-04-20T00:21:42;100455.06;;;5.61;100.00
21863;BME280;11096;51.338;12.524;2023-04-20T00:24:08;100445.06;;;5.53;100.00
21863;BME280;11096;51.338;12.524;2023-04-20T00:26:33;100448.38;;;5.57;100.00
21863;BME280;11096;51.338;12.524;2023-04-20T00:28:58;100446.69;;;5.56;100.00
21863;BME280;11096;51.338;12.524;2023-04-20T00:31:24;100434.97;;;7.34;100.00
21863;BME280;11096;51.338;12.524;2023-04-20T00:33:49;100438.31;;;6.47;100.00
21863;BME280;11096;51.338;12.524;2023-04-20T00:36:15;100430.28;;;5.77;100.00
21863;BME280;11096;51.338;12.524;2023-04-20T00:38:40;100430.25;;;5.58;100.00
21863;BME280;11096;51.338;12.524;2023-04-20T00:41:06;100426.41;;;5.48;100.00
21863;BME280;11096;51.338;12.524;2023-04-20T00:43:31;100426.34;;;5.50;100.00
21863;BME280;11096;51.338;12.524;2023-04-20T00:45:57;100428.97;;;5.48;100.00
21863;BME280;11096;51.338;12.524;2023-04-20T00:48:22;100423.03;;;5.46;100.00
21863;BME280;11096;51.338;12.524;2023-04-20T00:50:49;100428.00;;;5.51;100.00
21863;BME280;11096;51.338;12.524;2023-04-20T00:53:15;100423.81;;;5.48;100.00
21863;BME280;11096;51.338;12.524;2023-04-20T00:55:42;100428.19;;;5.46;100.00
21863;BME280;11096;51.338;12.524;2023-04-20T00:58:08;100418.63;;;5.29;100.00
21863;BME280;11096;51.338;12.524;2023-04-20T01:00:33;100420.16;;;5.33;100.00
21863;BME280;11096;51.338;12.524;2023-04-20T01:02:59;100428.72;;;5.34;100.00
21863;BME280;11096;51.338;12.524;2023-04-20T01:05:25;100427.97;;;5.32;100.00
21863;BME280;11096;51.338;12.524;2023-04-20T01:07:51;100426.44;;;5.28;100.00
21863;BME280;11096;51.338;12.524;2023-04-20T01:10:16;100425.47;;;5.30;100.00
21863;BME280;11096;51.338;12.524;2023-04-20T01:12:42;100422.88;;;5.30;100.00
21863;BME280;11096;51.338;12.524;2023-04-20T01:15:08;100419.66;;;5.25;100.00
21863;BME280;11096;51.338;12.524;2023-04-20T01:17:34;100421.06;;;5.32;100.00
21863;BME280;11096;51.338;12.524;2023-04-20T01:20:07;100422.75;;;5.33;100.00
21863;BME280;11096;51.338;12.524;2023-04-20T01:22:41;100415.78;;;5.35;100.00
21863;BME280;11096;51.338;12.524;2023-04-20T01:25:07;100422.88;;;5.30;100.00
21863;BME280;11096;51.338;12.524;2023-04-20T01:27:32;100414.75;;;5.40;100.00
21863;BME280;11096;51.338;12.524;2023-04-20T01:29:57;100410.44;;;5.40;100.00
21863;BME280;11096;51.338;12.524;2023-04-20T01:32:23;100410.38;;;5.42;100.00
21863;BME280;11096;51.338;12.524;2023-04-20T01:34:48;100415.00;;;5.33;100.00
21863;BME280;11096;51.338;12.524;2023-04-20T01:37:14;100417.41;;;5.38;100.00
21863;BME280;11096;51.338;12.524;2023-04-20T01:39:39;100414.63;;;5.43;100.00
21863;BME280;11096;51.338;12.524;2023-04-20T01:42:05;100410.38;;;5.42;100.00
21863;BME280;11096;51.338;12.524;2023-04-20T01:44:31;100408.88;;;5.36;100.00
21863;BME280;11096;51.338;12.524;2023-04-20T01:46:56;100405.53;;;5.34;100.00
21863;BME280;11096;51.338;12.524;2023-04-20T01:49:22;100405.63;;;5.32;100.00
21863;BME280;11096;51.338;12.524;2023-04-20T01:51:47;100409.84;;;5.33;100.00
21863;BME280;11096;51.338;12.524;2023-04-20T01:54:12;100413.41;;;5.31;100.00
21863;BME280;11096;51.338;12.524;2023-04-20T01:56:38;100411.53;;;5.34;100.00
21863;BME280;11096;51.338;12.524;2023-04-20T01:59:03;100410.91;;;5.29;100.00
21863;BME280;11096;51.338;12.524;2023-04-20T02:01:29;100410.47;;;5.20;100.00
21863;BME280;11096;51.338;12.524;2023-04-20T02:03:54;100405.38;;;5.18;100.00
21863;BME280;11096;51.338;12.524;2023-04-20T02:06:19;100408.22;;;5.12;100.00
21863;BME280;11096;51.338;12.524;2023-04-20T02:08:45;100418.63;;;5.09;100.00
21863;BME280;11096;51.338;12.524;2023-04-20T02:11:10;100405.22;;;5.21;100.00
21863;BME280;11096;51.338;12.524;2023-04-20T02:13:36;100406.19;;;5.19;100.00
21863;BME280;11096;51.338;12.524;2023-04-20T02:16:01;100399.81;;;5.27;100.00
21863;BME280;11096;51.338;12.524;2023-04-20T02:18:26;100398.72;;;5.33;100.00
21863;BME280;11096;51.338;12.524;2023-04-20T02:20:54;100407.03;;;5.19;100.00
21863;BME280;11096;51.338;12.524;2023-04-20T02:23:19;100400.22;;;5.18;100.00
21863;BME280;11096;51.338;12.524;2023-04-20T02:25:45;100399.19;;;5.22;100.00
21863;BME280;11096;51.338;12.524;2023-04-20T02:28:10;100401.88;;;5.19;100.00
21863;BME280;11096;51.338;12.524;2023-04-20T02:30:35;100405.50;;;5.15;100.00
21863;BME280;11096;51.338;12.524;2023-04-20T02:33:01;100406.84;;;5.24;100.00
21863;BME280;11096;51.338;12.524;2023-04-20T02:35:26;100410.78;;;5.32;100.00
21863;BME280;11096;51.338;12.524;2023-04-20T02:37:51;100413.16;;;5.37;100.00
21863;BME280;11096;51.338;12.524;2023-04-20T02:40:17;100415.66;;;5.38;100.00
21863;BME280;11096;51.338;12.524;2023-04-20T02:42:42;100415.34;;;5.26;100.00
21863;BME280;11096;51.338;12.524;2023-04-20T02:45:08;100417.28;;;5.21;100.00
21863;BME280;11096;51.338;12.524;2023-04-20T02:47:34;100412.25;;;5.18;100.00
21863;BME280;11096;51.338;12.524;2023-04-20T02:49:59;100412.69;;;5.07;100.00
21863;BME280;11096;51.338;12.524;2023-04-20T02:52:25;100420.97;;;5.15;100.00
21863;BME280;11096;51.338;12.524;2023-04-20T02:54:50;100412.72;;;5.27;100.00
21863;BME280;11096;51.338;12.524;2023-04-20T02:57:16;100411.66;;;5.11;100.00
21863;BME280;11096;51.338;12.524;2023-04-20T02:59:41;100408.25;;;5.10;100.00
21863;BME280;11096;51.338;12.524;2023-04-20T03:02:07;100402.38;;;5.07;100.00
21863;BME280;11096;51.338;12.524;2023-04-20T03:04:32;100405.41;;;5.16;100.00
21863;BME280;11096;51.338;12.524;2023-04-20T03:06:58;100403.16;;;5.09;100.00
21863;BME280;11096;51.338;12.524;2023-04-20T03:09:24;100401.03;;;5.19;100.00
21863;BME280;11096;51.338;12.524;2023-04-20T03:11:49;100401.63;;;5.25;100.00
21863;BME280;11096;51.338;12.524;2023-04-20T03:14:15;100397.78;;;5.15;100.00
21863;BME280;11096;51.338;12.524;2023-04-20T03:16:41;100401.63;;;5.25;100.00
21863;BME280;11096;51.338;12.524;2023-04-20T03:19:06;100395.66;;;5.25;100.00
21863;BME280;11096;51.338;12.524;2023-04-20T03:21:32;100396.59;;;5.22;100.00
21863;BME280;11096;51.338;12.524;2023-04-20T03:23:59;100388.09;;;5.20;100.00
21863;BME280;11096;51.338;12.524;2023-04-20T03:26:24;100390.03;;;5.15;100.00
21863;BME280;11096;51.338;12.524;2023-04-20T03:28:50;100395.19;;;5.15;100.00
21863;BME280;11096;51.338;12.524;2023-04-20T03:31:16;100402.28;;;5.10;100.00
21863;BME280;11096;51.338;12.524;2023-04-20T03:33:41;100401.06;;;4.98;100.00
21863;BME280;11096;51.338;12.524;2023-04-20T03:36:07;100401.25;;;4.93;100.00
21863;BME280;11096;51.338;12.524;2023-04-20T03:38:33;100407.66;;;4.83;100.00
21863;BME280;11096;51.338;12.524;2023-04-20T03:40:59;100409.72;;;4.75;100.00
21863;BME280;11096;51.338;12.524;2023-04-20T03:43:24;100410.00;;;4.67;100.00
21863;BME280;11096;51.338;12.524;2023-04-20T03:45:49;100403.97;;;4.68;100.00
21863;BME280;11096;51.338;12.524;2023-04-20T03:48:15;100404.34;;;4.59;100.00
21863;BME280;11096;51.338;12.524;2023-04-20T03:50:40;100400.59;;;4.46;100.00
21863;BME280;11096;51.338;12.524;2023-04-20T03:53:06;100403.56;;;4.35;100.00
21863;BME280;11096;51.338;12.524;2023-04-20T03:55:31;100412.41;;;4.28;100.00
21863;BME280;11096;51.338;12.524;2023-04-20T03:57:56;100402.25;;;4.25;100.00
21863;BME280;11096;51.338;12.524;2023-04-20T04:00:22;100402.25;;;4.25;100.00
21863;BME280;11096;51.338;12.524;2023-04-20T04:02:47;100407.41;;;4.25;100.00
21863;BME280;11096;51.338;12.524;2023-04-20T04:05:13;100408.06;;;4.30;100.00
21863;BME280;11096;51.338;12.524;2023-04-20T04:07:38;100404.66;;;4.29;100.00
21863;BME280;11096;51.338;12.524;2023-04-20T04:10:04;100399.16;;;4.17;100.00
21863;BME280;11096;51.338;12.524;2023-04-20T04:12:30;100400.97;;;4.13;100.00
21863;BME280;11096;51.338;12.524;2023-04-20T04:14:56;100402.84;;;4.09;100.00
21863;BME280;11096;51.338;12.524;2023-04-20T04:17:21;100400.31;;;4.08;100.00
21863;BME280;11096;51.338;12.524;2023-04-20T04:19:47;100403.06;;;4.03;100.00
21863;BME280;11096;51.338;12.524;2023-04-20T04:22:12;100409.13;;;4.02;100.00
21863;BME280;11096;51.338;12.524;2023-04-20T04:24:37;100409.78;;;4.07;100.00
21863;BME280;11096;51.338;12.524;2023-04-20T04:27:03;100414.59;;;4.17;100.00
21863;BME280;11096;51.338;12.524;2023-04-20T04:29:32;100420.78;;;4.33;100.00
21863;BME280;11096;51.338;12.524;2023-04-20T04:32:01;100422.84;;;4.47;100.00
21863;BME280;11096;51.338;12.524;2023-04-20T04:34:27;100425.84;;;4.58;100.00
21863;BME280;11096;51.338;12.524;2023-04-20T04:36:54;100428.75;;;4.71;100.00
21863;BME280;11096;51.338;12.524;2023-04-20T04:39:19;100429.16;;;4.82;100.00
21863;BME280;11096;51.338;12.524;2023-04-20T04:41:45;100424.28;;;4.97;100.00
21863;BME280;11096;51.338;12.524;2023-04-20T04:44:10;100429.97;;;5.05;100.00
21863;BME280;11096;51.338;12.524;2023-04-20T04:46:36;100438.72;;;5.01;100.00
21863;BME280;11096;51.338;12.524;2023-04-20T04:49:01;100437.81;;;5.02;100.00
21863;BME280;11096;51.338;12.524;2023-04-20T04:51:28;100438.44;;;5.07;100.00
21863;BME280;11096;51.338;12.524;2023-04-20T04:53:54;100443.34;;;4.92;100.00
21863;BME280;11096;51.338;12.524;2023-04-20T04:56:20;100446.69;;;4.94;100.00
21863;BME280;11096;51.338;12.524;2023-04-20T04:58:45;100445.53;;;5.02;100.00
21863;BME280;11096;51.338;12.524;2023-04-20T05:01:12;100447.09;;;5.06;100.00
21863;BME280;11096;51.338;12.524;2023-04-20T05:03:38;100443.22;;;5.16;100.00
21863;BME280;11096;51.338;12.524;2023-04-20T05:06:03;100443.22;;;5.16;100.00
21863;BME280;11096;51.338;12.524;2023-04-20T05:08:28;100435.81;;;5.08;100.00
21863;BME280;11096;51.338;12.524;2023-04-20T05:10:56;100439.00;;;5.15;100.00
21863;BME280;11096;51.338;12.524;2023-04-20T05:13:21;100438.34;;;5.30;100.00
21863;BME280;11096;51.338;12.524;2023-04-20T05:15:46;100448.56;;;5.52;100.00
21863;BME280;11096;51.338;12.524;2023-04-20T05:18:12;100450.59;;;5.25;100.00
21863;BME280;11096;51.338;12.524;2023-04-20T05:20:37;100444.91;;;5.37;100.00
21863;BME280;11096;51.338;12.524;2023-04-20T05:23:03;100442.81;;;5.27;100.00
21863;BME280;11096;51.338;12.524;2023-04-20T05:25:29;100452.19;;;5.28;100.00
21863;BME280;11096;51.338;12.524;2023-04-20T05:27:54;100444.34;;;5.10;100.00
21863;BME280;11096;51.338;12.524;2023-04-20T05:30:20;100452.72;;;5.15;100.00
21863;BME280;11096;51.338;12.524;2023-04-20T05:32:46;100456.69;;;5.02;100.00
21863;BME280;11096;51.338;12.524;2023-04-20T05:35:11;100466.41;;;5.16;100.00
21863;BME280;11096;51.338;12.524;2023-04-20T05:37:37;100467.66;;;5.07;100.00
21863;BME280;11096;51.338;12.524;2023-04-20T05:40:03;100467.41;;;4.91;100.00
21863;BME280;11096;51.338;12.524;2023-04-20T05:42:29;100465.03;;;5.29;100.00
21863;BME280;11096;51.338;12.524;2023-04-20T05:44:54;100478.88;;;5.47;100.00
21863;BME280;11096;51.338;12.524;2023-04-20T05:47:19;100474.22;;;5.55;100.00
21863;BME280;11096;51.338;12.524;2023-04-20T05:52:13;100483.28;;;5.44;100.00
21863;BME280;11096;51.338;12.524;2023-04-20T05:54:38;100488.44;;;5.44;100.00
21863;BME280;11096;51.338;12.524;2023-04-20T05:57:03;100496.59;;;5.34;100.00
21863;BME280;11096;51.338;12.524;2023-04-20T05:59:30;100503.53;;;5.32;100.00
21863;BME280;11096;51.338;12.524;2023-04-20T06:01:55;100496.59;;;5.55;100.00
21863;BME280;11096;51.338;12.524;2023-04-20T06:04:21;100502.44;;;5.58;100.00
21863;BME280;11096;51.338;12.524;2023-04-20T06:06:46;100518.94;;;5.95;100.00
21863;BME280;11096;51.338;12.524;2023-04-20T06:09:12;100510.88;;;6.03;100.00
21863;BME280;11096;51.338;12.524;2023-04-20T06:11:37;100502.25;;;5.63;100.00
21863;BME280;11096;51.338;12.524;2023-04-20T06:14:03;100508.31;;;6.03;100.00
21863;BME280;11096;51.338;12.524;2023-04-20T06:16:28;100507.53;;;5.60;100.00
21863;BME280;11096;51.338;12.524;2023-04-20T06:18:53;100511.72;;;5.42;100.00
21863;BME280;11096;51.338;12.524;2023-04-20T06:21:19;100509.94;;;5.44;100.00
21863;BME280;11096;51.338;12.524;2023-04-20T06:23:44;100511.09;;;5.57;100.00
21863;BME280;11096;51.338;12.524;2023-04-20T06:26:10;100502.03;;;5.68;100.00
21863;BME280;11096;51.338;12.524;2023-04-20T06:28:36;100506.97;;;5.74;100.00
21863;BME280;11096;51.338;12.524;2023-04-20T06:31:02;100507.72;;;5.55;99.04
21863;BME280;11096;51.338;12.524;2023-04-20T06:33:28;100504.97;;;5.60;98.82
21863;BME280;11096;51.338;12.524;2023-04-20T06:35:54;100515.81;;;5.87;97.73
21863;BME280;11096;51.338;12.524;2023-04-20T06:38:21;100517.03;;;5.39;97.50
21863;BME280;11096;51.338;12.524;2023-04-20T06:40:47;100528.88;;;5.43;97.02
21863;BME280;11096;51.338;12.524;2023-04-20T06:43:12;100521.34;;;5.16;98.48
21863;BME280;11096;51.338;12.524;2023-04-20T06:45:37;100526.09;;;5.27;99.43
21863;BME280;11096;51.338;12.524;2023-04-20T06:48:04;100519.97;;;5.50;100.00
21863;BME280;11096;51.338;12.524;2023-04-20T06:50:30;100515.13;;;5.63;99.00
21863;BME280;11096;51.338;12.524;2023-04-20T06:52:55;100522.03;;;5.63;96.88
21863;BME280;11096;51.338;12.524;2023-04-20T06:55:21;100521.47;;;5.76;96.17
21863;BME280;11096;51.338;12.524;2023-04-20T06:57:46;100523.13;;;5.77;94.27
21863;BME280;11096;51.338;12.524;2023-04-20T07:00:12;100521.41;;;6.17;93.50
21863;BME280;11096;51.338;12.524;2023-04-20T07:02:44;100524.13;;;6.14;91.96
21863;BME280;11096;51.338;12.524;2023-04-20T07:05:10;100523.50;;;6.85;89.67
21863;BME280;11096;51.338;12.524;2023-04-20T07:07:36;100528.66;;;6.85;88.62
21863;BME280;11096;51.338;12.524;2023-04-20T07:10:01;100527.88;;;7.54;86.19
21863;BME280;11096;51.338;12.524;2023-04-20T07:12:27;100514.81;;;9.78;78.99
21863;BME280;11096;51.338;12.524;2023-04-20T07:14:52;100500.97;;;11.94;69.57
21863;BME280;11096;51.338;12.524;2023-04-20T07:17:18;100496.22;;;12.62;63.11
21863;BME280;11096;51.338;12.524;2023-04-20T07:19:44;100497.91;;;13.58;59.76
21863;BME280;11096;51.338;12.524;2023-04-20T07:22:09;100493.53;;;14.80;56.10
21863;BME280;11096;51.338;12.524;2023-04-20T07:24:35;100492.19;;;14.31;54.55
21863;BME280;11096;51.338;12.524;2023-04-20T07:27:00;100485.03;;;13.32;54.16
21863;BME280;11096;51.338;12.524;2023-04-20T07:29:27;100493.78;;;11.98;56.67
21863;BME280;11096;51.338;12.524;2023-04-20T07:31:52;100498.13;;;11.59;57.84
21863;BME280;11096;51.338;12.524;2023-04-20T07:34:17;100497.00;;;11.63;57.59
21863;BME280;11096;51.338;12.524;2023-04-20T07:36:43;100497.28;;;11.58;58.03
21863;BME280;11096;51.338;12.524;2023-04-20T07:39:08;100503.50;;;12.33;57.47
21863;BME280;11096;51.338;12.524;2023-04-20T07:41:35;100494.59;;;13.20;56.00
21863;BME280;11096;51.338;12.524;2023-04-20T07:44:00;100497.03;;;13.35;55.21
21863;BME280;11096;51.338;12.524;2023-04-20T07:46:25;100502.16;;;15.97;51.03
21863;BME280;11096;51.338;12.524;2023-04-20T07:48:52;100505.28;;;15.39;48.08
21863;BME280;11096;51.338;12.524;2023-04-20T07:51:18;100497.50;;;19.66;43.58
21863;BME280;11096;51.338;12.524;2023-04-20T07:53:43;100487.88;;;21.50;38.84
21863;BME280;11096;51.338;12.524;2023-04-20T07:56:09;100487.78;;;20.44;38.57
21863;BME280;11096;51.338;12.524;2023-04-20T07:58:34;100489.38;;;22.00;37.50
21863;BME280;11096;51.338;12.524;2023-04-20T08:01:02;100486.84;;;24.13;33.70
21863;BME280;11096;51.338;12.524;2023-04-20T08:03:28;100485.41;;;24.47;32.22
21863;BME280;11096;51.338;12.524;2023-04-20T08:05:53;100493.84;;;23.31;32.68
21863;BME280;11096;51.338;12.524;2023-04-20T08:08:19;100489.38;;;26.26;29.48
21863;BME280;11096;51.338;12.524;2023-04-20T08:10:44;100479.66;;;27.40;27.90
21863;BME280;11096;51.338;12.524;2023-04-20T08:13:10;100469.50;;;26.29;28.12
21863;BME280;11096;51.338;12.524;2023-04-20T08:15:35;100462.00;;;26.79;27.04
21863;BME280;11096;51.338;12.524;2023-04-20T08:18:00;100464.47;;;26.81;27.44
21863;BME280;11096;51.338;12.524;2023-04-20T08:20:26;100454.94;;;28.55;25.90
21863;BME280;11096;51.338;12.524;2023-04-20T08:22:51;100455.00;;;28.10;24.93
21863;BME280;11096;51.338;12.524;2023-04-20T08:25:17;100445.41;;;29.78;24.31
21863;BME280;11096;51.338;12.524;2023-04-20T08:27:42;100448.06;;;30.68;23.80
21863;BME280;11096;51.338;12.524;2023-04-20T08:30:08;100452.09;;;32.00;22.93
21863;BME280;11096;51.338;12.524;2023-04-20T08:32:34;100442.16;;;31.49;21.53
21863;BME280;11096;51.338;12.524;2023-04-20T08:34:59;100452.28;;;33.46;21.63
21863;BME280;11096;51.338;12.524;2023-04-20T08:37:25;100450.66;;;29.29;23.02
21863;BME280;11096;51.338;12.524;2023-04-20T08:39:51;100459.31;;;27.46;25.07
21863;BME280;11096;51.338;12.524;2023-04-20T08:42:16;100463.84;;;22.16;29.27
21863;BME280;11096;51.338;12.524;2023-04-20T08:44:42;100476.91;;;19.62;34.67
21863;BME280;11096;51.338;12.524;2023-04-20T08:47:10;100479.44;;;22.02;34.86
21863;BME280;11096;51.338;12.524;2023-04-20T08:49:36;100471.03;;;21.99;32.47
21863;BME280;11096;51.338;12.524;2023-04-20T08:52:04;100465.78;;;21.82;32.83
21863;BME280;11096;51.338;12.524;2023-04-20T08:54:30;100461.13;;;24.35;31.28
21863;BME280;11096;51.338;12.524;2023-04-20T08:56:56;100458.19;;;23.49;31.49
21863;BME280;11096;51.338;12.524;2023-04-20T08:59:22;100459.28;;;23.99;32.46
21863;BME280;11096;51.338;12.524;2023-04-20T09:01:48;100453.16;;;25.90;29.47
21863;BME280;11096;51.338;12.524;2023-04-20T09:04:19;100455.94;;;25.76;28.15
21863;BME280;11096;51.338;12.524;2023-04-20T09:06:45;100459.97;;;27.99;27.75
21863;BME280;11096;51.338;12.524;2023-04-20T09:09:11;100464.88;;;26.64;26.26
21863;BME280;11096;51.338;12.524;2023-04-20T09:11:37;100473.19;;;22.81;31.56
21863;BME280;11096;51.338;12.524;2023-04-20T09:14:05;100479.22;;;18.77;36.02
21863;BME280;11096;51.338;12.524;2023-04-20T09:16:34;100489.84;;;18.39;37.40
21863;BME280;11096;51.338;12.524;2023-04-20T09:18:59;100495.94;;;21.65;34.74
21863;BME280;11096;51.338;12.524;2023-04-20T09:21:26;100490.47;;;23.38;32.30
21863;BME280;11096;51.338;12.524;2023-04-20T09:26:25;100490.25;;;25.07;29.13
21863;BME280;11096;51.338;12.524;2023-04-20T09:28:50;100487.94;;;22.60;32.00
21863;BME280;11096;51.338;12.524;2023-04-20T09:31:20;100482.75;;;20.91;33.81
21863;BME280;11096;51.338;12.524;2023-04-20T09:33:56;100478.53;;;19.63;36.57
21863;BME280;11096;51.338;12.524;2023-04-20T09:36:21;100494.84;;;19.14;37.97
21863;BME280;11096;51.338;12.524;2023-04-20T09:38:46;100491.88;;;17.90;38.87
21863;BME280;11096;51.338;12.524;2023-04-20T09:41:13;100489.25;;;17.33;40.24
21863;BME280;11096;51.338;12.524;2023-04-20T09:43:41;100487.94;;;16.30;43.35
21863;BME280;11096;51.338;12.524;2023-04-20T09:46:06;100486.75;;;16.64;43.38
21863;BME280;11096;51.338;12.524;2023-04-20T09:48:33;100485.66;;;16.76;43.65
21863;BME280;11096;51.338;12.524;2023-04-20T09:51:01;100481.00;;;17.66;42.92
21863;BME280;11096;51.338;12.524;2023-04-20T09:53:27;100486.59;;;16.56;43.42
21863;BME280;11096;51.338;12.524;2023-04-20T09:55:55;100483.09;;;17.62;43.31
21863;BME280;11096;51.338;12.524;2023-04-20T09:58:22;100475.81;;;16.39;43.27
21863;BME280;11096;51.338;12.524;2023-04-20T10:00:48;100483.84;;;17.35;42.25
21863;BME280;11096;51.338;12.524;2023-04-20T10:03:17;100481.53;;;18.16;39.53
21863;BME280;11096;51.338;12.524;2023-04-20T10:05:43;100494.41;;;19.71;38.43
21863;BME280;11096;51.338;12.524;2023-04-20T10:08:09;100480.19;;;20.41;36.10
21863;BME280;11096;51.338;12.524;2023-04-20T10:10:48;100482.59;;;21.09;35.09
21863;BME280;11096;51.338;12.524;2023-04-20T10:13:15;100479.72;;;22.07;33.41
21863;BME280;11096;51.338;12.524;2023-04-20T10:15:43;100488.81;;;22.99;33.04
21863;BME280;11096;51.338;12.524;2023-04-20T10:18:34;100493.31;;;22.98;32.62
21863;BME280;11096;51.338;12.524;2023-04-20T10:21:07;100484.59;;;20.83;35.38
21863;BME280;11096;51.338;12.524;2023-04-20T10:23:33;100489.31;;;20.04;36.47
21863;BME280;11096;51.338;12.524;2023-04-20T10:25:59;100495.16;;;18.02;38.40
21863;BME280;11096;51.338;12.524;2023-04-20T10:28:39;100488.03;;;18.40;39.65
21863;BME280;11096;51.338;12.524;2023-04-20T10:31:06;100486.16;;;18.50;38.68
21863;BME280;11096;51.338;12.524;2023-04-20T10:33:32;100482.47;;;19.15;38.27
21863;BME280;11096;51.338;12.524;2023-04-20T10:35:58;100483.16;;;16.65;41.09
21863;BME280;11096;51.338;12.524;2023-04-20T10:38:30;100480.88;;;15.18;44.75
21863;BME280;11096;51.338;12.524;2023-04-20T10:41:04;100482.63;;;14.64;47.46
21863;BME280;11096;51.338;12.524;2023-04-20T10:43:30;100484.56;;;14.51;47.57
21863;BME280;11096;51.338;12.524;2023-04-20T10:45:55;100473.88;;;14.54;47.11
21863;BME280;11096;51.338;12.524;2023-04-20T10:48:20;100476.91;;;14.04;47.95
21863;BME280;11096;51.338;12.524;2023-04-20T10:50:46;100465.97;;;13.19;50.43
21863;BME280;11096;51.338;12.524;2023-04-20T10:53:19;100471.53;;;12.31;52.16
21863;BME280;11096;51.338;12.524;2023-04-20T10:55:45;100461.84;;;12.20;54.43
21863;BME280;11096;51.338;12.524;2023-04-20T10:58:23;100458.22;;;13.41;52.98
21863;BME280;11096;51.338;12.524;2023-04-20T11:00:56;100455.88;;;13.61;52.59
21863;BME280;11096;51.338;12.524;2023-04-20T11:03:22;100460.28;;;13.49;54.27
21863;BME280;11096;51.338;12.524;2023-04-20T11:05:49;100459.44;;;13.13;54.38
21863;BME280;11096;51.338;12.524;2023-04-20T11:08:14;100455.72;;;12.93;55.23
21863;BME280;11096;51.338;12.524;2023-04-20T11:10:41;100460.59;;;13.33;55.01
21863;BME280;11096;51.338;12.524;2023-04-20T11:13:18;100458.97;;;12.73;54.38
21863;BME280;11096;51.338;12.524;2023-04-20T11:15:43;100450.66;;;11.94;55.22
21863;BME280;11096;51.338;12.524;2023-04-20T11:18:10;100452.66;;;11.52;57.75
21863;BME280;11096;51.338;12.524;2023-04-20T11:20:36;100449.22;;;11.90;57.38
21863;BME280;11096;51.338;12.524;2023-04-20T11:23:02;100454.50;;;11.75;57.79
21863;BME280;11096;51.338;12.524;2023-04-20T11:25:30;100453.78;;;11.48;58.05
21863;BME280;11096;51.338;12.524;2023-04-20T11:28:08;100451.41;;;10.92;58.11
21863;BME280;11096;51.338;12.524;2023-04-20T11:30:40;100454.25;;;10.62;59.94
21863;BME280;11096;51.338;12.524;2023-04-20T11:33:06;100456.00;;;10.88;61.00
21863;BME280;11096;51.338;12.524;2023-04-20T11:35:41;100457.06;;;11.11;61.42
21863;BME280;11096;51.338;12.524;2023-04-20T11:38:07;100452.47;;;11.02;61.51
21863;BME280;11096;51.338;12.524;2023-04-20T11:40:33;100456.22;;;10.98;61.56
21863;BME280;11096;51.338;12.524;2023-04-20T11:42:58;100445.81;;;10.98;61.45
21863;BME280;11096;51.338;12.524;2023-04-20T11:45:25;100446.66;;;10.99;61.69
21863;BME280;11096;51.338;12.524;2023-04-20T11:47:52;100456.84;;;10.62;61.87
21863;BME280;11096;51.338;12.524;2023-04-20T11:50:19;100454.59;;;10.83;62.52
21863;BME280;11096;51.338;12.524;2023-04-20T11:52:45;100458.47;;;10.36;63.47
21863;BME280;11096;51.338;12.524;2023-04-20T11:55:11;100454.50;;;10.30;64.26
21863;BME280;11096;51.338;12.524;2023-04-20T11:57:36;100456.00;;;10.34;64.54
21863;BME280;11096;51.338;12.524;2023-04-20T12:00:02;100451.44;;;10.09;64.72
21863;BME280;11096;51.338;12.524;2023-04-20T12:02:28;100448.00;;;10.64;64.86
21863;BME280;11096;51.338;12.524;2023-04-20T12:04:54;100446.88;;;10.41;65.23
21863;BME280;11096;51.338;12.524;2023-04-20T12:07:20;100441.06;;;10.78;65.24
21863;BME280;11096;51.338;12.524;2023-04-20T12:09:46;100432.38;;;10.91;64.45
21863;BME280;11096;51.338;12.524;2023-04-20T12:12:11;100431.72;;;11.15;65.37
21863;BME280;11096;51.338;12.524;2023-04-20T12:14:37;100429.00;;;11.16;64.20
21863;BME280;11096;51.338;12.524;2023-04-20T12:17:03;100426.75;;;10.85;64.57
21863;BME280;11096;51.338;12.524;2023-04-20T12:19:29;100427.81;;;10.95;64.84
21863;BME280;11096;51.338;12.524;2023-04-20T12:21:55;100431.19;;;10.70;65.95
21863;BME280;11096;51.338;12.524;2023-04-20T12:24:21;100429.47;;;10.96;65.92
21863;BME280;11096;51.338;12.524;2023-04-20T12:26:46;100435.81;;;10.92;65.39
21863;BME280;11096;51.338;12.524;2023-04-20T12:29:12;100442.16;;;10.61;66.74
21863;BME280;11096;51.338;12.524;2023-04-20T12:31:37;100435.28;;;10.87;67.49
21863;BME280;11096;51.338;12.524;2023-04-20T12:34:03;100435.06;;;10.90;67.61
21863;BME280;11096;51.338;12.524;2023-04-20T12:36:28;100432.69;;;11.00;67.10
21863;BME280;11096;51.338;12.524;2023-04-20T12:38:54;100436.03;;;10.20;66.85
21863;BME280;11096;51.338;12.524;2023-04-20T12:41:21;100426.69;;;10.32;68.07